sensor_id;sensor_type;location;lat;lon;timestamp;temperature;humidity
75153;HTU21D;63734;45.218;36.708;2023-04-24T00:00:11;10.48;91.05
75153;HTU21D;63734;45.218;36.708;2023-04-24T00:02:42;10.51;90.91
75153;HTU21D;63734;45.218;36.708;2023-04-24T00:05:12;10.56;90.89
75153;HTU21D;63734;45.218;36.708;2023-04-24T00:07:40;10.62;90.72
75153;HTU21D;63734;45.218;36.708;2023-04-24T00:10:06;10.67;90.65
75153;HTU21D;63734;45.218;36.708;2023-04-24T00:12:32;10.69;90.51
75153;HTU21D;63734;45.218;36.708;2023-04-24T00:14:58;10.73;90.48
75153;HTU21D;63734;45.218;36.708;2023-04-24T00:17:24;10.75;90.40
75153;HTU21D;63734;45.218;36.708;2023-04-24T00:19:50;10.77;90.37
75153;HTU21D;63734;45.218;36.708;2023-04-24T00:22:17;10.79;90.36
75153;HTU21D;63734;45.218;36.708;2023-04-24T00:24:43;10.79;90.29
75153;HTU21D;63734;45.218;36.708;2023-04-24T00:27:09;10.83;90.37
75153;HTU21D;63734;45.218;36.708;2023-04-24T00:29:35;10.85;90.37
75153;HTU21D;63734;45.218;36.708;2023-04-24T00:32:01;10.83;90.31
75153;HTU21D;63734;45.218;36.708;2023-04-24T00:34:27;10.83;90.31
75153;HTU21D;63734;45.218;36.708;2023-04-24T00:36:53;10.85;90.23
75153;HTU21D;63734;45.218;36.708;2023-04-24T00:39:19;10.86;90.03
75153;HTU21D;63734;45.218;36.708;2023-04-24T00:41:45;10.86;89.92
75153;HTU21D;63734;45.218;36.708;2023-04-24T00:44:12;10.87;89.82
75153;HTU21D;63734;45.218;36.708;2023-04-24T00:46:39;10.87;89.66
75153;HTU21D;63734;45.218;36.708;2023-04-24T00:49:05;10.89;89.61
75153;HTU21D;63734;45.218;36.708;2023-04-24T00:51:34;10.88;89.47
75153;HTU21D;63734;45.218;36.708;2023-04-24T00:54:01;10.90;89.39
75153;HTU21D;63734;45.218;36.708;2023-04-24T00:56:28;10.93;89.32
75153;HTU21D;63734;45.218;36.708;2023-04-24T00:58:54;10.93;89.30
75153;HTU21D;63734;45.218;36.708;2023-04-24T01:01:21;10.93;89.28
75153;HTU21D;63734;45.218;36.708;2023-04-24T01:03:49;10.92;89.35
75153;HTU21D;63734;45.218;36.708;2023-04-24T01:06:17;10.88;89.46
75153;HTU21D;63734;45.218;36.708;2023-04-24T01:08:45;10.89;89.54
75153;HTU21D;63734;45.218;36.708;2023-04-24T01:11:12;10.88;89.58
75153;HTU21D;63734;45.218;36.708;2023-04-24T01:13:38;10.88;89.59
75153;HTU21D;63734;45.218;36.708;2023-04-24T01:16:04;10.88;89.78
75153;HTU21D;63734;45.218;36.708;2023-04-24T01:18:30;10.86;89.81
75153;HTU21D;63734;45.218;36.708;2023-04-24T01:20:59;10.86;90.05
75153;HTU21D;63734;45.218;36.708;2023-04-24T01:23:30;10.85;90.15
75153;HTU21D;63734;45.218;36.708;2023-04-24T01:25:56;10.87;90.21
75153;HTU21D;63734;45.218;36.708;2023-04-24T01:28:25;10.85;90.39
75153;HTU21D;63734;45.218;36.708;2023-04-24T01:30:51;10.85;90.46
75153;HTU21D;63734;45.218;36.708;2023-04-24T01:33:17;10.86;90.43
75153;HTU21D;63734;45.218;36.708;2023-04-24T01:35:43;10.88;90.52
75153;HTU21D;63734;45.218;36.708;2023-04-24T01:38:09;10.90;90.66
75153;HTU21D;63734;45.218;36.708;2023-04-24T01:40:35;10.89;91.01
75153;HTU21D;63734;45.218;36.708;2023-04-24T01:43:01;10.89;91.01
75153;HTU21D;63734;45.218;36.708;2023-04-24T01:45:29;10.89;91.05
75153;HTU21D;63734;45.218;36.708;2023-04-24T01:47:56;10.90;91.21
75153;HTU21D;63734;45.218;36.708;2023-04-24T01:50:23;10.89;91.21
75153;HTU21D;63734;45.218;36.708;2023-04-24T01:52:49;10.92;91.25
75153;HTU21D;63734;45.218;36.708;2023-04-24T01:55:15;10.93;91.24
75153;HTU21D;63734;45.218;36.708;2023-04-24T01:57:41;10.93;91.16
75153;HTU21D;63734;45.218;36.708;2023-04-24T02:00:07;10.97;91.08
75153;HTU21D;63734;45.218;36.708;2023-04-24T02:02:40;11.02;90.94
75153;HTU21D;63734;45.218;36.708;2023-04-24T02:05:07;11.05;90.75
75153;HTU21D;63734;45.218;36.708;2023-04-24T02:07:35;11.08;90.69
75153;HTU21D;63734;45.218;36.708;2023-04-24T02:10:02;11.11;90.55
75153;HTU21D;63734;45.218;36.708;2023-04-24T02:12:30;11.12;90.34
75153;HTU21D;63734;45.218;36.708;2023-04-24T02:14:56;11.15;90.20
75153;HTU21D;63734;45.218;36.708;2023-04-24T02:17:22;11.18;90.05
75153;HTU21D;63734;45.218;36.708;2023-04-24T02:19:48;11.20;90.00
75153;HTU21D;63734;45.218;36.708;2023-04-24T02:22:14;11.22;89.88
75153;HTU21D;63734;45.218;36.708;2023-04-24T02:24:40;11.22;89.70
75153;HTU21D;63734;45.218;36.708;2023-04-24T02:27:06;11.24;89.60
75153;HTU21D;63734;45.218;36.708;2023-04-24T02:29:32;11.24;89.42
75153;HTU21D;63734;45.218;36.708;2023-04-24T02:31:58;11.28;89.25
75153;HTU21D;63734;45.218;36.708;2023-04-24T02:34:24;11.27;89.18
75153;HTU21D;63734;45.218;36.708;2023-04-24T02:36:50;11.29;89.03
75153;HTU21D;63734;45.218;36.708;2023-04-24T02:39:16;11.31;88.96
75153;HTU21D;63734;45.218;36.708;2023-04-24T02:41:45;11.32;88.92
75153;HTU21D;63734;45.218;36.708;2023-04-24T02:44:11;11.31;88.88
75153;HTU21D;63734;45.218;36.708;2023-04-24T02:46:37;11.33;88.86
75153;HTU21D;63734;45.218;36.708;2023-04-24T02:49:03;11.37;88.89
75153;HTU21D;63734;45.218;36.708;2023-04-24T02:51:29;11.39;88.89
75153;HTU21D;63734;45.218;36.708;2023-04-24T02:53:57;11.42;88.91
75153;HTU21D;63734;45.218;36.708;2023-04-24T02:56:23;11.47;88.87
75153;HTU21D;63734;45.218;36.708;2023-04-24T02:58:48;11.49;88.86
75153;HTU21D;63734;45.218;36.708;2023-04-24T03:01:15;11.49;88.87
75153;HTU21D;63734;45.218;36.708;2023-04-24T03:03:41;11.48;88.76
75153;HTU21D;63734;45.218;36.708;2023-04-24T03:06:07;11.48;88.74
75153;HTU21D;63734;45.218;36.708;2023-04-24T03:08:33;11.45;88.71
75153;HTU21D;63734;45.218;36.708;2023-04-24T03:11:00;11.44;88.74
75153;HTU21D;63734;45.218;36.708;2023-04-24T03:13:26;11.44;88.81
75153;HTU21D;63734;45.218;36.708;2023-04-24T03:15:52;11.46;88.76
75153;HTU21D;63734;45.218;36.708;2023-04-24T03:18:18;11.49;88.75
75153;HTU21D;63734;45.218;36.708;2023-04-24T03:20:46;11.49;88.76
75153;HTU21D;63734;45.218;36.708;2023-04-24T03:23:13;11.53;88.76
75153;HTU21D;63734;45.218;36.708;2023-04-24T03:25:39;11.54;88.76
75153;HTU21D;63734;45.218;36.708;2023-04-24T03:28:07;11.57;88.73
75153;HTU21D;63734;45.218;36.708;2023-04-24T03:30:38;11.59;88.65
75153;HTU21D;63734;45.218;36.708;2023-04-24T03:33:05;11.62;88.56
75153;HTU21D;63734;45.218;36.708;2023-04-24T03:35:35;11.62;88.42
75153;HTU21D;63734;45.218;36.708;2023-04-24T03:38:04;11.66;88.35
75153;HTU21D;63734;45.218;36.708;2023-04-24T03:40:49;11.68;88.25
75153;HTU21D;63734;45.218;36.708;2023-04-24T03:43:37;11.70;88.31
75153;HTU21D;63734;45.218;36.708;2023-04-24T03:46:04;11.71;88.32
75153;HTU21D;63734;45.218;36.708;2023-04-24T03:48:35;11.71;88.35
75153;HTU21D;63734;45.218;36.708;2023-04-24T03:51:01;11.71;88.41
75153;HTU21D;63734;45.218;36.708;2023-04-24T03:53:29;11.72;88.41
75153;HTU21D;63734;45.218;36.708;2023-04-24T03:55:56;11.73;88.46
75153;HTU21D;63734;45.218;36.708;2023-04-24T03:58:22;11.74;88.38
75153;HTU21D;63734;45.218;36.708;2023-04-24T04:00:49;11.74;88.33
75153;HTU21D;63734;45.218;36.708;2023-04-24T04:03:38;11.75;88.28
75153;HTU21D;63734;45.218;36.708;2023-04-24T04:06:04;11.79;88.26
75153;HTU21D;63734;45.218;36.708;2023-04-24T04:08:31;11.83;88.26
75153;HTU21D;63734;45.218;36.708;2023-04-24T04:10:57;11.85;88.28
75153;HTU21D;63734;45.218;36.708;2023-04-24T04:13:23;11.88;88.27
75153;HTU21D;63734;45.218;36.708;2023-04-24T04:15:49;11.91;88.31
75153;HTU21D;63734;45.218;36.708;2023-04-24T04:18:16;11.93;88.23
75153;HTU21D;63734;45.218;36.708;2023-04-24T04:20:42;11.97;88.31
75153;HTU21D;63734;45.218;36.708;2023-04-24T04:23:10;11.98;88.13
75153;HTU21D;63734;45.218;36.708;2023-04-24T04:26:03;11.99;87.85
75153;HTU21D;63734;45.218;36.708;2023-04-24T04:28:42;12.01;87.70
75153;HTU21D;63734;45.218;36.708;2023-04-24T04:31:11;12.06;87.57
75153;HTU21D;63734;45.218;36.708;2023-04-24T04:33:37;12.13;87.24
75153;HTU21D;63734;45.218;36.708;2023-04-24T04:36:06;12.19;86.96
75153;HTU21D;63734;45.218;36.708;2023-04-24T04:38:38;12.32;86.35
75153;HTU21D;63734;45.218;36.708;2023-04-24T04:41:12;12.60;85.76
75153;HTU21D;63734;45.218;36.708;2023-04-24T04:43:38;12.97;84.74
75153;HTU21D;63734;45.218;36.708;2023-04-24T04:46:06;13.11;83.57
75153;HTU21D;63734;45.218;36.708;2023-04-24T04:48:54;13.12;83.51
75153;HTU21D;63734;45.218;36.708;2023-04-24T04:51:20;13.10;83.29
75153;HTU21D;63734;45.218;36.708;2023-04-24T04:53:46;13.08;82.96
75153;HTU21D;63734;45.218;36.708;2023-04-24T04:56:12;13.09;82.87
75153;HTU21D;63734;45.218;36.708;2023-04-24T04:58:40;13.25;82.64
75153;HTU21D;63734;45.218;36.708;2023-04-24T05:01:10;13.41;82.13
75153;HTU21D;63734;45.218;36.708;2023-04-24T05:03:40;13.67;81.76
75153;HTU21D;63734;45.218;36.708;2023-04-24T05:06:09;13.94;80.83
75153;HTU21D;63734;45.218;36.708;2023-04-24T05:08:38;14.11;79.95
75153;HTU21D;63734;45.218;36.708;2023-04-24T05:11:07;14.25;79.58
75153;HTU21D;63734;45.218;36.708;2023-04-24T05:13:33;14.21;79.49
75153;HTU21D;63734;45.218;36.708;2023-04-24T05:16:01;14.11;79.31
75153;HTU21D;63734;45.218;36.708;2023-04-24T05:18:29;14.03;79.49
75153;HTU21D;63734;45.218;36.708;2023-04-24T05:20:55;13.98;79.85
75153;HTU21D;63734;45.218;36.708;2023-04-24T05:23:22;13.92;79.77
75153;HTU21D;63734;45.218;36.708;2023-04-24T05:25:51;13.85;79.77
75153;HTU21D;63734;45.218;36.708;2023-04-24T05:28:18;13.81;80.28
75153;HTU21D;63734;45.218;36.708;2023-04-24T05:30:52;13.76;80.57
75153;HTU21D;63734;45.218;36.708;2023-04-24T05:33:19;13.71;80.85
75153;HTU21D;63734;45.218;36.708;2023-04-24T05:35:45;13.69;81.01
75153;HTU21D;63734;45.218;36.708;2023-04-24T05:38:13;13.64;81.36
75153;HTU21D;63734;45.218;36.708;2023-04-24T05:40:39;13.68;81.43
75153;HTU21D;63734;45.218;36.708;2023-04-24T05:43:05;13.71;81.57
75153;HTU21D;63734;45.218;36.708;2023-04-24T05:45:31;13.69;81.79
75153;HTU21D;63734;45.218;36.708;2023-04-24T05:47:57;13.68;82.01
75153;HTU21D;63734;45.218;36.708;2023-04-24T05:50:23;13.64;82.20
75153;HTU21D;63734;45.218;36.708;2023-04-24T05:52:49;13.58;82.47
75153;HTU21D;63734;45.218;36.708;2023-04-24T05:55:25;13.55;82.78
75153;HTU21D;63734;45.218;36.708;2023-04-24T05:57:52;13.49;83.19
75153;HTU21D;63734;45.218;36.708;2023-04-24T06:00:18;13.46;83.60
75153;HTU21D;63734;45.218;36.708;2023-04-24T06:02:51;13.50;84.09
75153;HTU21D;63734;45.218;36.708;2023-04-24T06:05:20;13.61;84.54
75153;HTU21D;63734;45.218;36.708;2023-04-24T06:07:46;13.71;84.71
75153;HTU21D;63734;45.218;36.708;2023-04-24T06:10:12;13.77;84.74
75153;HTU21D;63734;45.218;36.708;2023-04-24T06:12:43;13.82;84.61
75153;HTU21D;63734;45.218;36.708;2023-04-24T06:15:15;13.84;84.44
75153;HTU21D;63734;45.218;36.708;2023-04-24T06:17:50;13.89;84.49
75153;HTU21D;63734;45.218;36.708;2023-04-24T06:20:17;13.92;84.42
75153;HTU21D;63734;45.218;36.708;2023-04-24T06:22:43;13.98;84.50
75153;HTU21D;63734;45.218;36.708;2023-04-24T06:25:10;14.06;84.19
75153;HTU21D;63734;45.218;36.708;2023-04-24T06:27:36;14.17;83.68
75153;HTU21D;63734;45.218;36.708;2023-04-24T06:30:02;14.28;83.08
75153;HTU21D;63734;45.218;36.708;2023-04-24T06:32:28;14.48;82.52
75153;HTU21D;63734;45.218;36.708;2023-04-24T06:34:54;14.65;82.08
75153;HTU21D;63734;45.218;36.708;2023-04-24T06:49:21;15.48;77.90
75153;HTU21D;63734;45.218;36.708;2023-04-24T06:51:47;15.53;77.81
75153;HTU21D;63734;45.218;36.708;2023-04-24T06:54:13;15.52;77.97
75153;HTU21D;63734;45.218;36.708;2023-04-24T06:56:39;15.49;78.03
75153;HTU21D;63734;45.218;36.708;2023-04-24T06:59:05;15.42;77.73
75153;HTU21D;63734;45.218;36.708;2023-04-24T07:01:31;15.34;77.98
75153;HTU21D;63734;45.218;36.708;2023-04-24T07:03:57;15.28;78.19
75153;HTU21D;63734;45.218;36.708;2023-04-24T07:06:23;15.21;78.14
75153;HTU21D;63734;45.218;36.708;2023-04-24T07:08:49;15.12;78.30
75153;HTU21D;63734;45.218;36.708;2023-04-24T07:11:15;15.00;78.48
75153;HTU21D;63734;45.218;36.708;2023-04-24T07:13:41;14.94;78.81
75153;HTU21D;63734;45.218;36.708;2023-04-24T07:16:08;14.86;79.13
75153;HTU21D;63734;45.218;36.708;2023-04-24T07:18:34;14.81;79.37
75153;HTU21D;63734;45.218;36.708;2023-04-24T07:21:00;14.79;79.53
75153;HTU21D;63734;45.218;36.708;2023-04-24T07:23:26;14.78;79.67
75153;HTU21D;63734;45.218;36.708;2023-04-24T07:25:52;14.75;79.73
75153;HTU21D;63734;45.218;36.708;2023-04-24T07:28:18;14.74;79.95
75153;HTU21D;63734;45.218;36.708;2023-04-24T07:30:44;14.75;79.97
75153;HTU21D;63734;45.218;36.708;2023-04-24T07:33:10;14.77;80.01
75153;HTU21D;63734;45.218;36.708;2023-04-24T07:35:38;14.83;80.07
75153;HTU21D;63734;45.218;36.708;2023-04-24T07:38:04;14.87;79.85
75153;HTU21D;63734;45.218;36.708;2023-04-24T07:40:30;14.94;79.72
75153;HTU21D;63734;45.218;36.708;2023-04-24T07:42:56;14.97;79.59
75153;HTU21D;63734;45.218;36.708;2023-04-24T07:45:22;15.03;79.53
75153;HTU21D;63734;45.218;36.708;2023-04-24T07:47:50;15.09;79.51
75153;HTU21D;63734;45.218;36.708;2023-04-24T07:50:16;15.12;79.68
75153;HTU21D;63734;45.218;36.708;2023-04-24T07:52:42;15.10;79.74
75153;HTU21D;63734;45.218;36.708;2023-04-24T07:55:08;15.10;79.66
75153;HTU21D;63734;45.218;36.708;2023-04-24T07:57:34;15.06;79.82
75153;HTU21D;63734;45.218;36.708;2023-04-24T08:00:00;15.10;79.88
75153;HTU21D;63734;45.218;36.708;2023-04-24T08:02:26;15.17;79.95
75153;HTU21D;63734;45.218;36.708;2023-04-24T08:04:52;15.22;79.71
75153;HTU21D;63734;45.218;36.708;2023-04-24T08:07:21;15.33;79.88
75153;HTU21D;63734;45.218;36.708;2023-04-24T08:09:47;15.44;79.78
75153;HTU21D;63734;45.218;36.708;2023-04-24T08:12:13;15.51;79.35
75153;HTU21D;63734;45.218;36.708;2023-04-24T08:14:39;15.58;78.92
75153;HTU21D;63734;45.218;36.708;2023-04-24T08:17:05;15.63;78.59
75153;HTU21D;63734;45.218;36.708;2023-04-24T08:19:31;15.75;78.40
75153;HTU21D;63734;45.218;36.708;2023-04-24T08:21:57;15.83;77.98
75153;HTU21D;63734;45.218;36.708;2023-04-24T08:24:23;15.99;77.95
75153;HTU21D;63734;45.218;36.708;2023-04-24T08:26:49;16.12;77.59
75153;HTU21D;63734;45.218;36.708;2023-04-24T08:29:19;16.22;77.15
75153;HTU21D;63734;45.218;36.708;2023-04-24T08:31:45;16.30;77.01
75153;HTU21D;63734;45.218;36.708;2023-04-24T08:34:11;16.31;76.55
75153;HTU21D;63734;45.218;36.708;2023-04-24T08:36:37;16.28;76.51
75153;HTU21D;63734;45.218;36.708;2023-04-24T08:39:03;16.27;76.79
75153;HTU21D;63734;45.218;36.708;2023-04-24T08:41:30;16.21;76.77
75153;HTU21D;63734;45.218;36.708;2023-04-24T08:43:56;16.24;77.27
75153;HTU21D;63734;45.218;36.708;2023-04-24T08:46:24;16.31;77.55
75153;HTU21D;63734;45.218;36.708;2023-04-24T08:48:52;16.21;77.60
75153;HTU21D;63734;45.218;36.708;2023-04-24T08:51:18;16.14;77.82
75153;HTU21D;63734;45.218;36.708;2023-04-24T08:53:46;16.13;78.01
75153;HTU21D;63734;45.218;36.708;2023-04-24T08:56:12;16.14;78.24
75153;HTU21D;63734;45.218;36.708;2023-04-24T08:58:39;16.16;78.13
75153;HTU21D;63734;45.218;36.708;2023-04-24T09:01:05;16.18;77.94
75153;HTU21D;63734;45.218;36.708;2023-04-24T09:03:31;16.18;78.12
75153;HTU21D;63734;45.218;36.708;2023-04-24T09:05:58;16.22;77.93
75153;HTU21D;63734;45.218;36.708;2023-04-24T09:08:26;16.28;77.74
75153;HTU21D;63734;45.218;36.708;2023-04-24T09:10:54;16.39;77.90
75153;HTU21D;63734;45.218;36.708;2023-04-24T09:13:20;16.45;77.66
75153;HTU21D;63734;45.218;36.708;2023-04-24T09:15:46;16.42;77.34
75153;HTU21D;63734;45.218;36.708;2023-04-24T09:18:13;16.40;77.85
75153;HTU21D;63734;45.218;36.708;2023-04-24T09:20:58;16.35;77.79
75153;HTU21D;63734;45.218;36.708;2023-04-24T09:23:27;16.30;77.69
75153;HTU21D;63734;45.218;36.708;2023-04-24T09:25:58;16.31;78.08
75153;HTU21D;63734;45.218;36.708;2023-04-24T09:28:29;16.25;77.60
75153;HTU21D;63734;45.218;36.708;2023-04-24T09:31:03;16.18;77.89
75153;HTU21D;63734;45.218;36.708;2023-04-24T09:33:30;16.12;77.98
75153;HTU21D;63734;45.218;36.708;2023-04-24T09:35:56;16.12;78.31
75153;HTU21D;63734;45.218;36.708;2023-04-24T09:38:37;15.97;78.01
75153;HTU21D;63734;45.218;36.708;2023-04-24T09:41:07;15.73;78.79
75153;HTU21D;63734;45.218;36.708;2023-04-24T09:43:35;15.61;78.88
75153;HTU21D;63734;45.218;36.708;2023-04-24T09:46:07;15.48;79.32
75153;HTU21D;63734;45.218;36.708;2023-04-24T09:48:36;15.44;79.95
75153;HTU21D;63734;45.218;36.708;2023-04-24T09:51:04;15.43;80.13
75153;HTU21D;63734;45.218;36.708;2023-04-24T09:53:32;15.32;79.76
75153;HTU21D;63734;45.218;36.708;2023-04-24T09:56:06;15.25;80.40
75153;HTU21D;63734;45.218;36.708;2023-04-24T09:58:32;15.17;80.82
75153;HTU21D;63734;45.218;36.708;2023-04-24T10:01:01;15.04;80.80
75153;HTU21D;63734;45.218;36.708;2023-04-24T10:03:30;14.97;81.27
75153;HTU21D;63734;45.218;36.708;2023-04-24T10:06:01;14.95;81.32
75153;HTU21D;63734;45.218;36.708;2023-04-24T10:08:33;14.93;81.25
75153;HTU21D;63734;45.218;36.708;2023-04-24T10:11:00;14.88;81.06
75153;HTU21D;63734;45.218;36.708;2023-04-24T10:13:27;14.83;81.01
75153;HTU21D;63734;45.218;36.708;2023-04-24T10:15:53;14.77;80.98
75153;HTU21D;63734;45.218;36.708;2023-04-24T10:18:20;14.74;80.65
75153;HTU21D;63734;45.218;36.708;2023-04-24T10:20:47;14.69;80.97
75153;HTU21D;63734;45.218;36.708;2023-04-24T10:23:13;14.63;81.14
75153;HTU21D;63734;45.218;36.708;2023-04-24T10:25:40;14.58;80.88
75153;HTU21D;63734;45.218;36.708;2023-04-24T10:28:06;14.54;80.80
75153;HTU21D;63734;45.218;36.708;2023-04-24T10:30:34;14.50;81.10
75153;HTU21D;63734;45.218;36.708;2023-04-24T10:33:07;14.42;80.78
75153;HTU21D;63734;45.218;36.708;2023-04-24T10:35:37;14.36;80.83
75153;HTU21D;63734;45.218;36.708;2023-04-24T10:38:09;14.35;80.65
75153;HTU21D;63734;45.218;36.708;2023-04-24T10:40:37;14.35;80.62
75153;HTU21D;63734;45.218;36.708;2023-04-24T10:43:04;14.32;80.86
75153;HTU21D;63734;45.218;36.708;2023-04-24T10:45:33;14.33;80.93
75153;HTU21D;63734;45.218;36.708;2023-04-24T10:48:02;14.36;80.72
75153;HTU21D;63734;45.218;36.708;2023-04-24T10:50:30;14.41;80.39
75153;HTU21D;63734;45.218;36.708;2023-04-24T10:53:11;14.44;80.30
75153;HTU21D;63734;45.218;36.708;2023-04-24T10:55:50;14.49;80.45
75153;HTU21D;63734;45.218;36.708;2023-04-24T10:58:21;14.50;80.50
75153;HTU21D;63734;45.218;36.708;2023-04-24T11:00:58;14.48;80.36
75153;HTU21D;63734;45.218;36.708;2023-04-24T11:03:29;14.43;79.99
75153;HTU21D;63734;45.218;36.708;2023-04-24T11:16:24;14.07;81.75
75153;HTU21D;63734;45.218;36.708;2023-04-24T11:18:52;14.07;81.94
75153;HTU21D;63734;45.218;36.708;2023-04-24T11:21:28;14.07;81.97
75153;HTU21D;63734;45.218;36.708;2023-04-24T11:23:58;14.07;82.13
75153;HTU21D;63734;45.218;36.708;2023-04-24T11:26:24;14.11;82.62
75153;HTU21D;63734;45.218;36.708;2023-04-24T11:29:06;14.12;82.81
75153;HTU21D;63734;45.218;36.708;2023-04-24T11:31:39;14.13;82.85
75153;HTU21D;63734;45.218;36.708;2023-04-24T11:34:07;14.11;82.73
75153;HTU21D;63734;45.218;36.708;2023-04-24T11:36:34;14.12;83.20
75153;HTU21D;63734;45.218;36.708;2023-04-24T11:39:01;14.13;83.27
75153;HTU21D;63734;45.218;36.708;2023-04-24T11:41:28;14.15;83.39
75153;HTU21D;63734;45.218;36.708;2023-04-24T11:43:55;14.09;83.31
75153;HTU21D;63734;45.218;36.708;2023-04-24T11:46:22;14.06;83.52
75153;HTU21D;63734;45.218;36.708;2023-04-24T11:48:48;14.01;83.44
75153;HTU21D;63734;45.218;36.708;2023-04-24T11:51:14;13.99;83.50
75153;HTU21D;63734;45.218;36.708;2023-04-24T11:53:40;13.98;83.61
75153;HTU21D;63734;45.218;36.708;2023-04-24T11:56:08;14.01;83.78
75153;HTU21D;63734;45.218;36.708;2023-04-24T11:58:35;14.01;83.67
75153;HTU21D;63734;45.218;36.708;2023-04-24T12:01:02;13.98;83.59
75153;HTU21D;63734;45.218;36.708;2023-04-24T12:03:28;13.96;83.71
75153;HTU21D;63734;45.218;36.708;2023-04-24T12:06:08;13.99;83.75
75153;HTU21D;63734;45.218;36.708;2023-04-24T12:08:34;14.01;83.89
75153;HTU21D;63734;45.218;36.708;2023-04-24T12:11:01;14.06;84.06
75153;HTU21D;63734;45.218;36.708;2023-04-24T12:13:27;14.08;84.14
75153;HTU21D;63734;45.218;36.708;2023-04-24T12:15:54;14.05;83.74
75153;HTU21D;63734;45.218;36.708;2023-04-24T12:18:22;14.07;83.87
75153;HTU21D;63734;45.218;36.708;2023-04-24T12:20:49;14.05;83.90
75153;HTU21D;63734;45.218;36.708;2023-04-24T12:23:15;14.01;83.91
75153;HTU21D;63734;45.218;36.708;2023-04-24T12:25:41;14.05;83.96
75153;HTU21D;63734;45.218;36.708;2023-04-24T12:28:12;14.05;83.62
75153;HTU21D;63734;45.218;36.708;2023-04-24T12:30:41;14.07;83.49
75153;HTU21D;63734;45.218;36.708;2023-04-24T12:33:10;14.11;83.45
75153;HTU21D;63734;45.218;36.708;2023-04-24T12:35:36;14.13;83.50
75153;HTU21D;63734;45.218;36.708;2023-04-24T12:38:26;14.20;83.18
75153;HTU21D;63734;45.218;36.708;2023-04-24T12:41:09;14.19;82.64
75153;HTU21D;63734;45.218;36.708;2023-04-24T12:43:35;14.15;82.37
75153;HTU21D;63734;45.218;36.708;2023-04-24T12:46:01;14.18;82.54
75153;HTU21D;63734;45.218;36.708;2023-04-24T12:48:29;14.15;81.94
75153;HTU21D;63734;45.218;36.708;2023-04-24T12:50:57;14.14;81.65
75153;HTU21D;63734;45.218;36.708;2023-04-24T12:53:27;14.09;82.15
75153;HTU21D;63734;45.218;36.708;2023-04-24T12:55:55;14.08;81.88
75153;HTU21D;63734;45.218;36.708;2023-04-24T12:58:21;14.07;81.48
75153;HTU21D;63734;45.218;36.708;2023-04-24T13:00:48;14.08;80.93
75153;HTU21D;63734;45.218;36.708;2023-04-24T13:03:14;14.07;80.50
75153;HTU21D;63734;45.218;36.708;2023-04-24T13:05:42;14.12;80.14
75153;HTU21D;63734;45.218;36.708;2023-04-24T13:08:08;14.11;79.33
75153;HTU21D;63734;45.218;36.708;2023-04-24T13:10:34;14.09;78.99
75153;HTU21D;63734;45.218;36.708;2023-04-24T13:13:00;14.11;79.59
75153;HTU21D;63734;45.218;36.708;2023-04-24T13:15:26;14.11;79.62
75153;HTU21D;63734;45.218;36.708;2023-04-24T13:17:52;14.15;79.21
75153;HTU21D;63734;45.218;36.708;2023-04-24T13:20:18;14.17;78.53
75153;HTU21D;63734;45.218;36.708;2023-04-24T13:22:44;14.21;78.82
75153;HTU21D;63734;45.218;36.708;2023-04-24T13:25:10;14.23;79.02
75153;HTU21D;63734;45.218;36.708;2023-04-24T13:27:38;14.25;78.94
75153;HTU21D;63734;45.218;36.708;2023-04-24T13:30:05;14.24;78.32
75153;HTU21D;63734;45.218;36.708;2023-04-24T13:32:32;14.26;78.43
75153;HTU21D;63734;45.218;36.708;2023-04-24T13:34:59;14.29;78.89
75153;HTU21D;63734;45.218;36.708;2023-04-24T13:37:24;14.30;78.54
75153;HTU21D;63734;45.218;36.708;2023-04-24T13:39:51;14.27;78.41
75153;HTU21D;63734;45.218;36.708;2023-04-24T13:42:17;14.26;78.53
75153;HTU21D;63734;45.218;36.708;2023-04-24T13:44:43;14.25;78.95
75153;HTU21D;63734;45.218;36.708;2023-04-24T13:47:10;14.35;79.37
75153;HTU21D;63734;45.218;36.708;2023-04-24T13:49:35;14.51;78.70
75153;HTU21D;63734;45.218;36.708;2023-04-24T13:52:02;14.44;78.43
75153;HTU21D;63734;45.218;36.708;2023-04-24T13:54:29;14.43;78.36
75153;HTU21D;63734;45.218;36.708;2023-04-24T13:56:57;14.35;78.29
75153;HTU21D;63734;45.218;36.708;2023-04-24T13:59:24;14.35;78.45
75153;HTU21D;63734;45.218;36.708;2023-04-24T14:01:50;14.34;77.93
75153;HTU21D;63734;45.218;36.708;2023-04-24T14:04:16;14.36;78.07
75153;HTU21D;63734;45.218;36.708;2023-04-24T14:06:42;14.39;78.06
75153;HTU21D;63734;45.218;36.708;2023-04-24T14:09:08;14.35;77.69
75153;HTU21D;63734;45.218;36.708;2023-04-24T14:11:35;14.29;77.85
75153;HTU21D;63734;45.218;36.708;2023-04-24T14:14:01;14.24;78.03
75153;HTU21D;63734;45.218;36.708;2023-04-24T14:16:28;14.19;78.36
75153;HTU21D;63734;45.218;36.708;2023-04-24T14:18:54;14.17;78.44
75153;HTU21D;63734;45.218;36.708;2023-04-24T14:21:20;14.13;78.33
75153;HTU21D;63734;45.218;36.708;2023-04-24T14:23:46;14.11;78.27
75153;HTU21D;63734;45.218;36.708;2023-04-24T14:26:12;14.11;78.53
75153;HTU21D;63734;45.218;36.708;2023-04-24T14:28:38;14.12;78.85
75153;HTU21D;63734;45.218;36.708;2023-04-24T14:31:04;14.10;79.15
75153;HTU21D;63734;45.218;36.708;2023-04-24T14:33:30;14.08;79.70
75153;HTU21D;63734;45.218;36.708;2023-04-24T14:35:57;14.10;80.02
75153;HTU21D;63734;45.218;36.708;2023-04-24T14:38:22;14.10;80.40
75153;HTU21D;63734;45.218;36.708;2023-04-24T14:40:48;14.07;80.61
75153;HTU21D;63734;45.218;36.708;2023-04-24T14:43:15;14.00;80.91
75153;HTU21D;63734;45.218;36.708;2023-04-24T14:45:40;13.95;81.06
75153;HTU21D;63734;45.218;36.708;2023-04-24T14:48:07;14.10;81.20
75153;HTU21D;63734;45.218;36.708;2023-04-24T14:50:33;14.24;81.08
75153;HTU21D;63734;45.218;36.708;2023-04-24T14:52:59;14.06;81.10
75153;HTU21D;63734;45.218;36.708;2023-04-24T14:55:27;13.85;81.55
75153;HTU21D;63734;45.218;36.708;2023-04-24T14:57:54;13.68;82.13
75153;HTU21D;63734;45.218;36.708;2023-04-24T15:00:22;13.54;83.06
75153;HTU21D;63734;45.218;36.708;2023-04-24T15:02:50;13.40;83.27
75153;HTU21D;63734;45.218;36.708;2023-04-24T15:05:16;13.31;83.57
75153;HTU21D;63734;45.218;36.708;2023-04-24T15:07:42;13.22;83.71
75153;HTU21D;63734;45.218;36.708;2023-04-24T15:10:09;13.17;83.90
75153;HTU21D;63734;45.218;36.708;2023-04-24T15:12:35;13.17;84.07
75153;HTU21D;63734;45.218;36.708;2023-04-24T15:15:01;13.14;84.49
75153;HTU21D;63734;45.218;36.708;2023-04-24T15:17:27;13.12;84.61
75153;HTU21D;63734;45.218;36.708;2023-04-24T15:19:53;13.11;84.77
75153;HTU21D;63734;45.218;36.708;2023-04-24T15:22:19;13.07;84.80
75153;HTU21D;63734;45.218;36.708;2023-04-24T15:24:45;13.06;85.33
75153;HTU21D;63734;45.218;36.708;2023-04-24T15:27:11;13.05;85.51